sensor_id;sensor_type;location;lat;lon;timestamp;P1;durP1;ratioP1;P2;durP2;ratioP2
64684;SDS011;51109;47.414;18.954;2024-01-16T00:01:46;6.13;;;3.55;;
64684;SDS011;51109;47.414;18.954;2024-01-16T00:04:11;8.88;;;3.25;;
64684;SDS011;51109;47.414;18.954;2024-01-16T00:06:40;5.50;;;3.00;;
64684;SDS011;51109;47.414;18.954;2024-01-16T00:09:07;4.65;;;2.85;;
64684;SDS011;51109;47.414;18.954;2024-01-16T00:11:39;3.75;;;2.65;;
64684;SDS011;51109;47.414;18.954;2024-01-16T00:14:06;7.20;;;3.10;;
64684;SDS011;51109;47.414;18.954;2024-01-16T00:16:32;5.35;;;3.10;;
64684;SDS011;51109;47.414;18.954;2024-01-16T00:18:58;3.88;;;2.75;;
64684;SDS011;51109;47.414;18.954;2024-01-16T00:21:23;5.20;;;3.05;;
64684;SDS011;51109;47.414;18.954;2024-01-16T00:23:49;4.22;;;3.25;;
64684;SDS011;51109;47.414;18.954;2024-01-16T00:26:21;4.50;;;2.95;;
64684;SDS011;51109;47.414;18.954;2024-01-16T00:28:48;5.25;;;2.67;;
64684;SDS011;51109;47.414;18.954;2024-01-16T00:31:13;8.40;;;2.95;;
64684;SDS011;51109;47.414;18.954;2024-01-16T00:33:40;9.63;;;3.38;;
64684;SDS011;51109;47.414;18.954;2024-01-16T00:36:05;4.03;;;2.45;;
64684;SDS011;51109;47.414;18.954;2024-01-16T00:38:32;5.10;;;2.55;;
64684;SDS011;51109;47.414;18.954;2024-01-16T00:40:59;4.68;;;2.80;;
64684;SDS011;51109;47.414;18.954;2024-01-16T00:43:24;4.25;;;3.00;;
64684;SDS011;51109;47.414;18.954;2024-01-16T00:45:50;4.68;;;2.72;;
64684;SDS011;51109;47.414;18.954;2024-01-16T00:48:16;2.75;;;2.30;;
64684;SDS011;51109;47.414;18.954;2024-01-16T00:50:43;4.38;;;2.78;;
64684;SDS011;51109;47.414;18.954;2024-01-16T00:53:08;3.38;;;2.40;;
64684;SDS011;51109;47.414;18.954;2024-01-16T00:55:34;2.40;;;2.20;;
64684;SDS011;51109;47.414;18.954;2024-01-16T00:58:00;5.10;;;2.70;;
64684;SDS011;51109;47.414;18.954;2024-01-16T01:00:26;2.42;;;1.95;;
64684;SDS011;51109;47.414;18.954;2024-01-16T01:02:52;3.95;;;2.72;;
64684;SDS011;51109;47.414;18.954;2024-01-16T01:05:18;4.25;;;2.58;;
64684;SDS011;51109;47.414;18.954;2024-01-16T01:07:44;4.15;;;2.72;;
64684;SDS011;51109;47.414;18.954;2024-01-16T01:10:09;3.88;;;2.22;;
64684;SDS011;51109;47.414;18.954;2024-01-16T01:12:35;5.30;;;2.88;;
64684;SDS011;51109;47.414;18.954;2024-01-16T01:15:01;4.18;;;2.17;;
64684;SDS011;51109;47.414;18.954;2024-01-16T01:17:27;4.07;;;2.47;;
64684;SDS011;51109;47.414;18.954;2024-01-16T01:19:53;2.50;;;2.05;;
64684;SDS011;51109;47.414;18.954;2024-01-16T01:22:18;3.95;;;3.05;;
64684;SDS011;51109;47.414;18.954;2024-01-16T01:24:44;4.38;;;3.22;;
64684;SDS011;51109;47.414;18.954;2024-01-16T01:27:10;3.78;;;2.80;;
64684;SDS011;51109;47.414;18.954;2024-01-16T01:29:36;5.18;;;3.25;;
64684;SDS011;51109;47.414;18.954;2024-01-16T01:32:01;5.35;;;2.80;;
64684;SDS011;51109;47.414;18.954;2024-01-16T01:34:27;5.93;;;3.45;;
64684;SDS011;51109;47.414;18.954;2024-01-16T01:36:53;5.25;;;3.20;;
64684;SDS011;51109;47.414;18.954;2024-01-16T01:39:19;6.10;;;2.90;;
64684;SDS011;51109;47.414;18.954;2024-01-16T01:41:44;4.82;;;3.20;;
64684;SDS011;51109;47.414;18.954;2024-01-16T01:44:10;4.00;;;3.28;;
64684;SDS011;51109;47.414;18.954;2024-01-16T01:46:41;5.22;;;3.40;;
64684;SDS011;51109;47.414;18.954;2024-01-16T01:49:08;7.70;;;3.67;;
64684;SDS011;51109;47.414;18.954;2024-01-16T01:51:34;6.80;;;3.40;;
64684;SDS011;51109;47.414;18.954;2024-01-16T01:54:00;5.40;;;3.67;;
64684;SDS011;51109;47.414;18.954;2024-01-16T01:56:26;5.78;;;3.90;;
64684;SDS011;51109;47.414;18.954;2024-01-16T01:58:53;5.07;;;3.92;;
64684;SDS011;51109;47.414;18.954;2024-01-16T02:01:21;8.70;;;4.38;;
64684;SDS011;51109;47.414;18.954;2024-01-16T02:03:47;5.32;;;3.72;;
64684;SDS011;51109;47.414;18.954;2024-01-16T02:06:15;6.28;;;3.35;;
64684;SDS011;51109;47.414;18.954;2024-01-16T02:08:41;9.85;;;4.10;;
64684;SDS011;51109;47.414;18.954;2024-01-16T02:11:08;8.05;;;4.55;;
64684;SDS011;51109;47.414;18.954;2024-01-16T02:13:35;6.30;;;4.00;;
64684;SDS011;51109;47.414;18.954;2024-01-16T02:16:01;4.32;;;3.17;;
64684;SDS011;51109;47.414;18.954;2024-01-16T02:18:28;4.20;;;3.40;;
64684;SDS011;51109;47.414;18.954;2024-01-16T02:20:56;5.97;;;3.92;;
64684;SDS011;51109;47.414;18.954;2024-01-16T02:23:29;4.35;;;3.60;;
64684;SDS011;51109;47.414;18.954;2024-01-16T02:25:56;8.85;;;4.13;;
64684;SDS011;51109;47.414;18.954;2024-01-16T02:28:22;5.68;;;3.55;;
64684;SDS011;51109;47.414;18.954;2024-01-16T02:30:48;6.85;;;3.80;;
64684;SDS011;51109;47.414;18.954;2024-01-16T02:33:14;5.10;;;3.40;;
64684;SDS011;51109;47.414;18.954;2024-01-16T02:35:40;5.57;;;4.00;;
64684;SDS011;51109;47.414;18.954;2024-01-16T02:38:06;5.13;;;3.50;;
64684;SDS011;51109;47.414;18.954;2024-01-16T02:40:31;7.28;;;3.45;;
64684;SDS011;51109;47.414;18.954;2024-01-16T02:42:57;7.28;;;4.28;;
64684;SDS011;51109;47.414;18.954;2024-01-16T02:45:23;7.55;;;4.18;;
64684;SDS011;51109;47.414;18.954;2024-01-16T02:47:49;6.82;;;3.78;;
64684;SDS011;51109;47.414;18.954;2024-01-16T02:50:15;6.78;;;4.43;;
64684;SDS011;51109;47.414;18.954;2024-01-16T02:52:41;8.55;;;4.85;;
64684;SDS011;51109;47.414;18.954;2024-01-16T02:55:07;7.45;;;4.13;;
64684;SDS011;51109;47.414;18.954;2024-01-16T02:57:33;6.20;;;4.35;;
64684;SDS011;51109;47.414;18.954;2024-01-16T02:59:59;6.05;;;4.47;;
64684;SDS011;51109;47.414;18.954;2024-01-16T03:02:24;7.00;;;4.35;;
64684;SDS011;51109;47.414;18.954;2024-01-16T03:04:50;7.15;;;4.30;;
64684;SDS011;51109;47.414;18.954;2024-01-16T03:07:16;10.20;;;4.60;;
64684;SDS011;51109;47.414;18.954;2024-01-16T03:09:42;6.45;;;4.65;;
64684;SDS011;51109;47.414;18.954;2024-01-16T03:12:08;8.02;;;4.35;;
64684;SDS011;51109;47.414;18.954;2024-01-16T03:14:33;8.05;;;4.57;;
64684;SDS011;51109;47.414;18.954;2024-01-16T03:17:01;7.80;;;4.95;;
64684;SDS011;51109;47.414;18.954;2024-01-16T03:19:28;7.03;;;4.10;;
64684;SDS011;51109;47.414;18.954;2024-01-16T03:21:53;5.78;;;4.35;;
64684;SDS011;51109;47.414;18.954;2024-01-16T03:24:19;7.55;;;4.38;;
64684;SDS011;51109;47.414;18.954;2024-01-16T03:26:45;7.38;;;4.28;;
64684;SDS011;51109;47.414;18.954;2024-01-16T03:29:11;4.93;;;3.28;;
64684;SDS011;51109;47.414;18.954;2024-01-16T03:31:37;4.90;;;3.03;;
64684;SDS011;51109;47.414;18.954;2024-01-16T03:34:03;7.05;;;4.22;;
64684;SDS011;51109;47.414;18.954;2024-01-16T03:36:29;4.65;;;3.72;;
64684;SDS011;51109;47.414;18.954;2024-01-16T03:38:55;6.13;;;3.60;;
64684;SDS011;51109;47.414;18.954;2024-01-16T03:41:21;5.35;;;3.20;;
64684;SDS011;51109;47.414;18.954;2024-01-16T03:43:46;6.07;;;4.03;;
64684;SDS011;51109;47.414;18.954;2024-01-16T03:46:12;7.25;;;3.90;;
64684;SDS011;51109;47.414;18.954;2024-01-16T03:48:38;4.55;;;3.65;;
64684;SDS011;51109;47.414;18.954;2024-01-16T03:51:04;7.88;;;4.07;;
64684;SDS011;51109;47.414;18.954;2024-01-16T03:53:32;5.80;;;3.35;;
64684;SDS011;51109;47.414;18.954;2024-01-16T03:55:57;3.58;;;2.35;;
64684;SDS011;51109;47.414;18.954;2024-01-16T03:58:23;4.97;;;3.58;;
64684;SDS011;51109;47.414;18.954;2024-01-16T04:00:49;4.20;;;3.40;;
64684;SDS011;51109;47.414;18.954;2024-01-16T04:03:16;5.47;;;4.05;;
64684;SDS011;51109;47.414;18.954;2024-01-16T04:05:42;5.97;;;4.30;;
64684;SDS011;51109;47.414;18.954;2024-01-16T04:08:08;6.00;;;3.53;;
64684;SDS011;51109;47.414;18.954;2024-01-16T04:10:34;4.40;;;2.83;;
64684;SDS011;51109;47.414;18.954;2024-01-16T04:13:00;4.32;;;3.45;;
64684;SDS011;51109;47.414;18.954;2024-01-16T04:15:27;7.32;;;3.50;;
64684;SDS011;51109;47.414;18.954;2024-01-16T04:17:53;5.28;;;2.67;;
64684;SDS011;51109;47.414;18.954;2024-01-16T04:20:20;8.48;;;3.30;;
64684;SDS011;51109;47.414;18.954;2024-01-16T04:22:46;4.28;;;3.10;;
64684;SDS011;51109;47.414;18.954;2024-01-16T04:25:12;4.68;;;3.05;;
64684;SDS011;51109;47.414;18.954;2024-01-16T04:27:38;4.10;;;2.50;;
64684;SDS011;51109;47.414;18.954;2024-01-16T04:30:04;4.93;;;3.17;;
64684;SDS011;51109;47.414;18.954;2024-01-16T04:32:30;3.85;;;2.60;;
64684;SDS011;51109;47.414;18.954;2024-01-16T04:34:56;3.20;;;2.63;;
64684;SDS011;51109;47.414;18.954;2024-01-16T04:37:22;5.90;;;3.50;;
64684;SDS011;51109;47.414;18.954;2024-01-16T04:39:49;5.38;;;3.75;;
64684;SDS011;51109;47.414;18.954;2024-01-16T04:42:15;6.18;;;3.42;;
64684;SDS011;51109;47.414;18.954;2024-01-16T04:44:43;5.72;;;3.67;;
64684;SDS011;51109;47.414;18.954;2024-01-16T04:47:09;3.47;;;2.97;;
64684;SDS011;51109;47.414;18.954;2024-01-16T04:49:35;8.48;;;3.38;;
64684;SDS011;51109;47.414;18.954;2024-01-16T04:52:00;4.50;;;3.00;;
64684;SDS011;51109;47.414;18.954;2024-01-16T04:54:26;3.90;;;2.45;;
64684;SDS011;51109;47.414;18.954;2024-01-16T04:56:52;4.85;;;3.10;;
64684;SDS011;51109;47.414;18.954;2024-01-16T04:59:18;6.30;;;3.03;;
64684;SDS011;51109;47.414;18.954;2024-01-16T05:01:43;3.15;;;2.25;;
64684;SDS011;51109;47.414;18.954;2024-01-16T05:04:09;4.38;;;2.58;;
64684;SDS011;51109;47.414;18.954;2024-01-16T05:06:35;3.17;;;2.83;;
64684;SDS011;51109;47.414;18.954;2024-01-16T05:09:01;4.32;;;3.17;;
64684;SDS011;51109;47.414;18.954;2024-01-16T05:11:28;5.43;;;2.67;;
64684;SDS011;51109;47.414;18.954;2024-01-16T05:13:54;3.55;;;2.97;;
64684;SDS011;51109;47.414;18.954;2024-01-16T05:16:25;4.75;;;2.80;;
64684;SDS011;51109;47.414;18.954;2024-01-16T05:18:52;7.82;;;4.55;;
64684;SDS011;51109;47.414;18.954;2024-01-16T05:21:19;7.50;;;3.05;;
64684;SDS011;51109;47.414;18.954;2024-01-16T05:23:46;5.78;;;3.30;;
64684;SDS011;51109;47.414;18.954;2024-01-16T05:26:12;4.68;;;3.10;;
64684;SDS011;51109;47.414;18.954;2024-01-16T05:28:38;2.95;;;2.35;;
64684;SDS011;51109;47.414;18.954;2024-01-16T05:31:04;5.95;;;3.65;;
64684;SDS011;51109;47.414;18.954;2024-01-16T05:33:30;3.80;;;2.90;;
64684;SDS011;51109;47.414;18.954;2024-01-16T05:35:58;6.07;;;3.00;;
64684;SDS011;51109;47.414;18.954;2024-01-16T05:38:24;4.82;;;2.72;;
64684;SDS011;51109;47.414;18.954;2024-01-16T05:40:50;3.90;;;2.35;;
64684;SDS011;51109;47.414;18.954;2024-01-16T05:43:17;5.28;;;2.58;;
64684;SDS011;51109;47.414;18.954;2024-01-16T05:45:43;6.90;;;3.10;;
64684;SDS011;51109;47.414;18.954;2024-01-16T05:48:08;6.45;;;3.72;;
64684;SDS011;51109;47.414;18.954;2024-01-16T05:50:36;6.50;;;3.70;;
64684;SDS011;51109;47.414;18.954;2024-01-16T05:53:02;9.45;;;3.60;;
64684;SDS011;51109;47.414;18.954;2024-01-16T05:55:28;5.22;;;3.53;;
64684;SDS011;51109;47.414;18.954;2024-01-16T05:57:59;4.97;;;3.15;;
64684;SDS011;51109;47.414;18.954;2024-01-16T06:00:25;7.57;;;3.85;;
64684;SDS011;51109;47.414;18.954;2024-01-16T06:02:51;5.47;;;3.55;;
64684;SDS011;51109;47.414;18.954;2024-01-16T06:05:17;5.70;;;3.45;;
64684;SDS011;51109;47.414;18.954;2024-01-16T06:07:42;4.22;;;3.17;;
64684;SDS011;51109;47.414;18.954;2024-01-16T06:10:08;5.82;;;4.00;;
64684;SDS011;51109;47.414;18.954;2024-01-16T06:12:37;7.82;;;4.70;;
64684;SDS011;51109;47.414;18.954;2024-01-16T06:15:03;6.07;;;3.60;;
64684;SDS011;51109;47.414;18.954;2024-01-16T06:17:29;6.85;;;4.43;;
64684;SDS011;51109;47.414;18.954;2024-01-16T06:19:55;7.47;;;3.63;;
64684;SDS011;51109;47.414;18.954;2024-01-16T06:22:21;6.88;;;3.70;;
64684;SDS011;51109;47.414;18.954;2024-01-16T06:24:46;5.55;;;3.55;;
64684;SDS011;51109;47.414;18.954;2024-01-16T06:27:12;9.18;;;3.83;;
64684;SDS011;51109;47.414;18.954;2024-01-16T06:29:47;12.70;;;5.18;;
64684;SDS011;51109;47.414;18.954;2024-01-16T06:32:13;13.95;;;5.43;;
64684;SDS011;51109;47.414;18.954;2024-01-16T06:34:39;7.78;;;4.20;;
64684;SDS011;51109;47.414;18.954;2024-01-16T06:37:05;9.38;;;4.10;;
64684;SDS011;51109;47.414;18.954;2024-01-16T06:39:31;9.18;;;3.55;;
64684;SDS011;51109;47.414;18.954;2024-01-16T06:41:58;6.20;;;3.95;;
64684;SDS011;51109;47.414;18.954;2024-01-16T06:44:24;12.20;;;4.88;;
64684;SDS011;51109;47.414;18.954;2024-01-16T06:46:49;9.07;;;3.90;;
64684;SDS011;51109;47.414;18.954;2024-01-16T06:49:15;8.60;;;4.60;;
64684;SDS011;51109;47.414;18.954;2024-01-16T06:51:41;10.07;;;4.05;;
64684;SDS011;51109;47.414;18.954;2024-01-16T06:54:07;6.13;;;3.45;;
64684;SDS011;51109;47.414;18.954;2024-01-16T06:56:33;4.25;;;2.67;;
64684;SDS011;51109;47.414;18.954;2024-01-16T06:58:59;6.93;;;4.10;;
64684;SDS011;51109;47.414;18.954;2024-01-16T07:01:24;6.90;;;3.97;;
64684;SDS011;51109;47.414;18.954;2024-01-16T07:03:51;6.35;;;3.63;;
64684;SDS011;51109;47.414;18.954;2024-01-16T07:06:17;7.07;;;3.70;;
64684;SDS011;51109;47.414;18.954;2024-01-16T07:08:44;4.97;;;3.35;;
64684;SDS011;51109;47.414;18.954;2024-01-16T07:11:10;7.18;;;3.35;;
64684;SDS011;51109;47.414;18.954;2024-01-16T07:13:39;9.05;;;4.15;;
64684;SDS011;51109;47.414;18.954;2024-01-16T07:16:06;6.78;;;3.83;;
64684;SDS011;51109;47.414;18.954;2024-01-16T07:18:34;3.97;;;2.92;;
64684;SDS011;51109;47.414;18.954;2024-01-16T07:21:00;5.70;;;3.35;;
64684;SDS011;51109;47.414;18.954;2024-01-16T07:23:27;6.72;;;3.25;;
64684;SDS011;51109;47.414;18.954;2024-01-16T07:25:52;8.27;;;3.55;;
64684;SDS011;51109;47.414;18.954;2024-01-16T07:28:18;6.65;;;3.72;;
64684;SDS011;51109;47.414;18.954;2024-01-16T07:30:44;6.32;;;3.78;;
64684;SDS011;51109;47.414;18.954;2024-01-16T07:33:10;7.65;;;4.35;;
64684;SDS011;51109;47.414;18.954;2024-01-16T07:35:36;7.97;;;3.40;;
64684;SDS011;51109;47.414;18.954;2024-01-16T07:38:04;6.85;;;3.25;;
64684;SDS011;51109;47.414;18.954;2024-01-16T07:40:29;3.67;;;2.55;;
64684;SDS011;51109;47.414;18.954;2024-01-16T07:42:55;7.40;;;2.95;;
64684;SDS011;51109;47.414;18.954;2024-01-16T07:45:21;5.32;;;3.08;;
64684;SDS011;51109;47.414;18.954;2024-01-16T07:47:47;6.45;;;2.88;;
64684;SDS011;51109;47.414;18.954;2024-01-16T07:50:12;6.35;;;3.67;;
64684;SDS011;51109;47.414;18.954;2024-01-16T07:52:38;5.97;;;2.65;;
64684;SDS011;51109;47.414;18.954;2024-01-16T07:55:04;4.28;;;2.85;;
64684;SDS011;51109;47.414;18.954;2024-01-16T07:57:30;4.47;;;2.88;;
64684;SDS011;51109;47.414;18.954;2024-01-16T07:59:56;6.68;;;3.05;;
64684;SDS011;51109;47.414;18.954;2024-01-16T08:02:22;10.30;;;3.88;;
64684;SDS011;51109;47.414;18.954;2024-01-16T08:04:52;10.32;;;3.63;;
64684;SDS011;51109;47.414;18.954;2024-01-16T08:07:18;6.10;;;3.10;;
64684;SDS011;51109;47.414;18.954;2024-01-16T08:09:43;3.15;;;2.30;;
64684;SDS011;51109;47.414;18.954;2024-01-16T08:12:09;8.75;;;3.38;;
64684;SDS011;51109;47.414;18.954;2024-01-16T08:14:35;6.07;;;3.72;;
64684;SDS011;51109;47.414;18.954;2024-01-16T08:17:01;4.25;;;2.70;;
64684;SDS011;51109;47.414;18.954;2024-01-16T08:19:27;9.27;;;3.30;;
64684;SDS011;51109;47.414;18.954;2024-01-16T08:22:01;6.50;;;2.58;;
64684;SDS011;51109;47.414;18.954;2024-01-16T08:24:31;8.90;;;3.00;;
64684;SDS011;51109;47.414;18.954;2024-01-16T08:26:59;9.65;;;2.75;;
64684;SDS011;51109;47.414;18.954;2024-01-16T08:29:25;4.85;;;2.58;;
64684;SDS011;51109;47.414;18.954;2024-01-16T08:31:51;6.43;;;3.03;;
64684;SDS011;51109;47.414;18.954;2024-01-16T08:34:18;6.25;;;2.60;;
64684;SDS011;51109;47.414;18.954;2024-01-16T08:36:43;5.05;;;2.63;;
64684;SDS011;51109;47.414;18.954;2024-01-16T08:39:09;4.15;;;2.92;;
64684;SDS011;51109;47.414;18.954;2024-01-16T08:41:35;5.32;;;2.35;;
64684;SDS011;51109;47.414;18.954;2024-01-16T08:44:02;7.15;;;2.30;;
64684;SDS011;51109;47.414;18.954;2024-01-16T08:46:28;4.68;;;2.75;;
64684;SDS011;51109;47.414;18.954;2024-01-16T08:48:53;6.85;;;3.15;;
64684;SDS011;51109;47.414;18.954;2024-01-16T08:51:19;7.68;;;3.30;;
64684;SDS011;51109;47.414;18.954;2024-01-16T08:53:45;8.20;;;2.20;;
64684;SDS011;51109;47.414;18.954;2024-01-16T08:56:11;6.13;;;2.63;;
64684;SDS011;51109;47.414;18.954;2024-01-16T08:58:38;6.85;;;3.38;;
64684;SDS011;51109;47.414;18.954;2024-01-16T09:01:04;5.13;;;2.80;;
64684;SDS011;51109;47.414;18.954;2024-01-16T09:03:33;9.90;;;3.55;;
64684;SDS011;51109;47.414;18.954;2024-01-16T09:05:59;4.50;;;3.13;;
64684;SDS011;51109;47.414;18.954;2024-01-16T09:08:26;7.30;;;3.20;;
64684;SDS011;51109;47.414;18.954;2024-01-16T09:10:52;10.10;;;2.88;;
64684;SDS011;51109;47.414;18.954;2024-01-16T09:13:18;7.03;;;2.53;;
64684;SDS011;51109;47.414;18.954;2024-01-16T09:15:48;4.50;;;2.58;;
64684;SDS011;51109;47.414;18.954;2024-01-16T09:18:17;6.38;;;2.20;;
64684;SDS011;51109;47.414;18.954;2024-01-16T09:20:43;4.65;;;2.50;;
64684;SDS011;51109;47.414;18.954;2024-01-16T09:23:09;7.88;;;3.25;;
64684;SDS011;51109;47.414;18.954;2024-01-16T09:25:35;7.10;;;2.88;;
64684;SDS011;51109;47.414;18.954;2024-01-16T09:28:01;4.15;;;2.35;;
64684;SDS011;51109;47.414;18.954;2024-01-16T09:30:28;9.07;;;3.42;;
64684;SDS011;51109;47.414;18.954;2024-01-16T09:32:53;4.63;;;2.70;;
64684;SDS011;51109;47.414;18.954;2024-01-16T09:35:19;7.40;;;2.75;;
64684;SDS011;51109;47.414;18.954;2024-01-16T09:37:45;8.55;;;3.00;;
64684;SDS011;51109;47.414;18.954;2024-01-16T09:40:11;5.38;;;2.75;;
64684;SDS011;51109;47.414;18.954;2024-01-16T09:42:38;5.55;;;3.40;;
64684;SDS011;51109;47.414;18.954;2024-01-16T09:45:05;6.05;;;3.60;;
64684;SDS011;51109;47.414;18.954;2024-01-16T09:47:34;6.43;;;3.95;;
64684;SDS011;51109;47.414;18.954;2024-01-16T09:50:00;8.05;;;4.47;;
64684;SDS011;51109;47.414;18.954;2024-01-16T09:52:28;8.07;;;4.25;;
64684;SDS011;51109;47.414;18.954;2024-01-16T09:54:54;10.77;;;4.75;;
64684;SDS011;51109;47.414;18.954;2024-01-16T09:57:20;9.60;;;4.72;;
64684;SDS011;51109;47.414;18.954;2024-01-16T09:59:51;8.85;;;4.00;;
64684;SDS011;51109;47.414;18.954;2024-01-16T10:02:18;9.55;;;4.88;;
64684;SDS011;51109;47.414;18.954;2024-01-16T10:04:46;9.95;;;5.10;;
64684;SDS011;51109;47.414;18.954;2024-01-16T10:07:12;7.03;;;4.57;;
64684;SDS011;51109;47.414;18.954;2024-01-16T10:09:40;7.88;;;4.00;;
64684;SDS011;51109;47.414;18.954;2024-01-16T10:12:06;10.98;;;5.18;;
64684;SDS011;51109;47.414;18.954;2024-01-16T10:14:33;10.55;;;4.53;;
64684;SDS011;51109;47.414;18.954;2024-01-16T10:16:59;8.40;;;4.68;;
64684;SDS011;51109;47.414;18.954;2024-01-16T10:19:52;10.98;;;5.00;;
64684;SDS011;51109;47.414;18.954;2024-01-16T10:22:23;5.88;;;3.90;;
64684;SDS011;51109;47.414;18.954;2024-01-16T10:24:54;10.43;;;4.28;;
64684;SDS011;51109;47.414;18.954;2024-01-16T10:27:30;4.47;;;3.65;;
64684;SDS011;51109;47.414;18.954;2024-01-16T10:29:56;6.05;;;3.55;;
64684;SDS011;51109;47.414;18.954;2024-01-16T10:32:27;7.03;;;3.78;;
64684;SDS011;51109;47.414;18.954;2024-01-16T10:40:08;4.00;;;2.40;;
64684;SDS011;51109;47.414;18.954;2024-01-16T10:42:35;8.98;;;2.80;;
64684;SDS011;51109;47.414;18.954;2024-01-16T10:45:01;4.18;;;1.70;;
64684;SDS011;51109;47.414;18.954;2024-01-16T10:47:27;7.07;;;1.67;;
64684;SDS011;51109;47.414;18.954;2024-01-16T10:50:09;3.85;;;1.98;;
64684;SDS011;51109;47.414;18.954;2024-01-16T10:52:35;4.95;;;1.90;;
64684;SDS011;51109;47.414;18.954;2024-01-16T10:55:04;5.32;;;1.90;;
64684;SDS011;51109;47.414;18.954;2024-01-16T10:57:32;7.75;;;2.40;;
64684;SDS011;51109;47.414;18.954;2024-01-16T11:00:03;3.92;;;2.15;;
64684;SDS011;51109;47.414;18.954;2024-01-16T11:03:05;4.82;;;2.67;;
64684;SDS011;51109;47.414;18.954;2024-01-16T11:05:34;3.72;;;1.33;;
64684;SDS011;51109;47.414;18.954;2024-01-16T11:08:02;4.88;;;2.42;;
64684;SDS011;51109;47.414;18.954;2024-01-16T11:10:30;7.70;;;2.83;;
64684;SDS011;51109;47.414;18.954;2024-01-16T11:12:59;6.85;;;3.17;;
64684;SDS011;51109;47.414;18.954;2024-01-16T11:15:26;8.63;;;2.33;;
64684;SDS011;51109;47.414;18.954;2024-01-16T11:17:56;3.85;;;2.33;;
64684;SDS011;51109;47.414;18.954;2024-01-16T11:20:25;7.13;;;2.10;;
64684;SDS011;51109;47.414;18.954;2024-01-16T11:22:52;4.15;;;2.15;;
64684;SDS011;51109;47.414;18.954;2024-01-16T11:25:30;4.18;;;2.50;;
64684;SDS011;51109;47.414;18.954;2024-01-16T11:28:07;5.95;;;2.40;;
64684;SDS011;51109;47.414;18.954;2024-01-16T11:30:35;5.10;;;2.17;;
64684;SDS011;51109;47.414;18.954;2024-01-16T11:33:01;6.65;;;2.30;;
64684;SDS011;51109;47.414;18.954;2024-01-16T11:35:33;4.85;;;2.33;;
64684;SDS011;51109;47.414;18.954;2024-01-16T11:38:17;5.95;;;2.30;;
64684;SDS011;51109;47.414;18.954;2024-01-16T11:40:45;7.57;;;2.35;;
64684;SDS011;51109;47.414;18.954;2024-01-16T11:46:04;2.80;;;1.95;;
64684;SDS011;51109;47.414;18.954;2024-01-16T11:48:31;5.80;;;2.10;;
64684;SDS011;51109;47.414;18.954;2024-01-16T11:50:57;7.63;;;2.50;;
64684;SDS011;51109;47.414;18.954;2024-01-16T11:53:37;6.97;;;2.40;;
64684;SDS011;51109;47.414;18.954;2024-01-16T12:01:52;12.68;;;2.40;;
64684;SDS011;51109;47.414;18.954;2024-01-16T12:04:22;5.38;;;2.28;;
64684;SDS011;51109;47.414;18.954;2024-01-16T12:06:58;5.40;;;2.60;;
64684;SDS011;51109;47.414;18.954;2024-01-16T12:09:25;4.50;;;2.35;;
64684;SDS011;51109;47.414;18.954;2024-01-16T12:12:02;5.95;;;2.67;;
64684;SDS011;51109;47.414;18.954;2024-01-16T12:14:28;6.53;;;2.47;;
64684;SDS011;51109;47.414;18.954;2024-01-16T12:17:10;7.60;;;3.38;;
64684;SDS011;51109;47.414;18.954;2024-01-16T12:19:37;4.80;;;2.97;;
64684;SDS011;51109;47.414;18.954;2024-01-16T12:22:05;4.18;;;2.63;;
64684;SDS011;51109;47.414;18.954;2024-01-16T12:24:35;3.80;;;2.28;;
64684;SDS011;51109;47.414;18.954;2024-01-16T12:27:02;9.07;;;3.88;;
64684;SDS011;51109;47.414;18.954;2024-01-16T12:29:29;8.52;;;4.22;;
64684;SDS011;51109;47.414;18.954;2024-01-16T12:32:05;6.38;;;3.53;;
64684;SDS011;51109;47.414;18.954;2024-01-16T12:34:35;5.20;;;2.78;;
64684;SDS011;51109;47.414;18.954;2024-01-16T12:37:10;7.30;;;3.60;;
64684;SDS011;51109;47.414;18.954;2024-01-16T12:39:36;7.60;;;4.05;;
64684;SDS011;51109;47.414;18.954;2024-01-16T12:42:02;9.00;;;3.38;;
64684;SDS011;51109;47.414;18.954;2024-01-16T12:44:28;5.57;;;3.17;;
64684;SDS011;51109;47.414;18.954;2024-01-16T12:46:55;5.30;;;3.08;;
64684;SDS011;51109;47.414;18.954;2024-01-16T12:49:22;10.73;;;2.03;;
64684;SDS011;51109;47.414;18.954;2024-01-16T12:51:48;10.18;;;2.72;;
64684;SDS011;51109;47.414;18.954;2024-01-16T12:54:16;5.68;;;1.95;;
64684;SDS011;51109;47.414;18.954;2024-01-16T12:56:43;5.75;;;2.33;;
64684;SDS011;51109;47.414;18.954;2024-01-16T12:59:10;5.13;;;2.00;;
64684;SDS011;51109;47.414;18.954;2024-01-16T13:01:41;4.38;;;1.98;;
64684;SDS011;51109;47.414;18.954;2024-01-16T13:04:09;4.00;;;1.95;;
64684;SDS011;51109;47.414;18.954;2024-01-16T13:06:35;3.20;;;1.92;;
64684;SDS011;51109;47.414;18.954;2024-01-16T13:09:04;3.92;;;1.70;;
64684;SDS011;51109;47.414;18.954;2024-01-16T13:11:47;3.67;;;2.05;;
64684;SDS011;51109;47.414;18.954;2024-01-16T13:14:14;6.95;;;2.08;;
64684;SDS011;51109;47.414;18.954;2024-01-16T13:16:40;2.30;;;1.73;;
64684;SDS011;51109;47.414;18.954;2024-01-16T13:19:06;1.88;;;1.33;;
64684;SDS011;51109;47.414;18.954;2024-01-16T13:21:39;5.43;;;1.52;;
64684;SDS011;51109;47.414;18.954;2024-01-16T13:24:04;2.85;;;1.30;;
64684;SDS011;51109;47.414;18.954;2024-01-16T13:26:32;3.58;;;1.35;;
64684;SDS011;51109;47.414;18.954;2024-01-16T13:28:58;2.00;;;1.25;;
64684;SDS011;51109;47.414;18.954;2024-01-16T13:31:23;2.15;;;1.33;;
64684;SDS011;51109;47.414;18.954;2024-01-16T13:33:49;3.42;;;1.20;;
64684;SDS011;51109;47.414;18.954;2024-01-16T13:36:15;1.20;;;1.10;;
64684;SDS011;51109;47.414;18.954;2024-01-16T13:38:41;5.28;;;2.53;;
64684;SDS011;51109;47.414;18.954;2024-01-16T13:41:07;2.90;;;1.00;;
64684;SDS011;51109;47.414;18.954;2024-01-16T13:43:33;4.88;;;1.77;;
64684;SDS011;51109;47.414;18.954;2024-01-16T13:45:59;7.15;;;1.75;;
64684;SDS011;51109;47.414;18.954;2024-01-16T13:48:25;3.60;;;1.60;;
64684;SDS011;51109;47.414;18.954;2024-01-16T13:50:50;5.47;;;1.60;;
64684;SDS011;51109;47.414;18.954;2024-01-16T13:53:17;6.65;;;2.30;;
64684;SDS011;51109;47.414;18.954;2024-01-16T13:55:43;4.90;;;2.08;;
64684;SDS011;51109;47.414;18.954;2024-01-16T13:58:09;5.82;;;2.72;;
64684;SDS011;51109;47.414;18.954;2024-01-16T14:00:36;3.92;;;1.90;;
64684;SDS011;51109;47.414;18.954;2024-01-16T14:03:02;5.05;;;2.03;;
64684;SDS011;51109;47.414;18.954;2024-01-16T14:05:28;6.50;;;2.58;;
64684;SDS011;51109;47.414;18.954;2024-01-16T14:07:54;7.63;;;2.45;;
64684;SDS011;51109;47.414;18.954;2024-01-16T14:10:21;4.07;;;2.10;;
64684;SDS011;51109;47.414;18.954;2024-01-16T14:12:48;7.50;;;3.28;;
64684;SDS011;51109;47.414;18.954;2024-01-16T14:15:16;6.40;;;2.45;;
64684;SDS011;51109;47.414;18.954;2024-01-16T14:17:48;4.72;;;2.00;;
64684;SDS011;51109;47.414;18.954;2024-01-16T14:20:15;6.90;;;2.67;;
64684;SDS011;51109;47.414;18.954;2024-01-16T14:22:43;6.55;;;3.63;;
64684;SDS011;51109;47.414;18.954;2024-01-16T14:25:10;3.47;;;2.22;;
64684;SDS011;51109;47.414;18.954;2024-01-16T14:27:40;4.10;;;2.10;;
64684;SDS011;51109;47.414;18.954;2024-01-16T14:30:09;5.38;;;2.35;;
64684;SDS011;51109;47.414;18.954;2024-01-16T14:32:39;5.22;;;2.45;;
64684;SDS011;51109;47.414;18.954;2024-01-16T14:35:06;4.97;;;2.15;;
64684;SDS011;51109;47.414;18.954;2024-01-16T14:37:35;3.25;;;1.42;;
64684;SDS011;51109;47.414;18.954;2024-01-16T14:40:02;3.45;;;1.70;;
64684;SDS011;51109;47.414;18.954;2024-01-16T14:42:32;9.60;;;2.40;;
64684;SDS011;51109;47.414;18.954;2024-01-16T14:44:59;16.42;;;5.20;;
64684;SDS011;51109;47.414;18.954;2024-01-16T14:47:25;4.75;;;3.15;;